Impacts METAR Board INFO
IDs:

KPHL - Philadelphia Intl, PA, US

Updated at: 0721 UTC 13 Dec 2017
Potential Impact None Slight Moderate High
Time12/19Z 12/20Z 12/21Z 12/22Z 12/23Z 13/00Z 13/01Z 13/02Z 13/03Z 13/04Z 13/05Z 13/06Z 13/07Z
VIS10 10 10 10 10 10 10 10 10 10 10 10 10
CIG70 70 70 60 55 110 120 -- -- -- -- -- --
CoverOVCOVCOVCOVCOVCOVCOVCSCTCLRCLRCLRCLRCLR
FltCatVFRVFRVFRVFRVFRVFRVFRVFRVFRVFRVFRVFRVFR
WX--------------------------
WDir290300310290300310300280310300290290290
WSpd7 11 13 7 15 18 22 19 21 22 16 17 14
WGst-- 17 -- -- -- 28 29 27 32 32 22 29 20
Raw hourly METARs
KPHL 121854Z 29007KT 260V330 10SM SCT060 OVC070 08/M01 A2948 RMK AO2 SLP983 T00781006 $
KPHL 121954Z 30011G17KT 10SM FEW032 BKN070 OVC080 07/M01 A2947 RMK AO2 SLP979 T00721006 $
KPHL 122054Z 31013KT 10SM SCT034 BKN070 OVC080 07/M01 A2949 RMK AO2 SLP986 T00671006 55001 VISNO W $
KPHL 122154Z 29007KT 10SM SCT035 OVC060 07/M02 A2951 RMK AO2 SLP992 T00671017 VISNO W $
KPHL 122254Z 30015KT 10SM FEW048 BKN055 OVC110 06/M03 A2953 RMK AO2 SLP000 T00561033 VISNO W $
KPHL 122354Z 31018G28KT 10SM SCT065 OVC110 04/M08 A2955 RMK AO2 PK WND 32031/2344 SLP004 T00391083 10078 20039 51018 VISNO W $
KPHL 130054Z 30022G29KT 10SM OVC120 02/M10 A2957 RMK AO2 PK WND 32029/0054 SLP014 T00221100 VISNO W $
KPHL 130154Z 28019G27KT 10SM SCT130 00/M12 A2958 RMK AO2 PK WND 31031/0055 SLP017 T00001122 VISNO W $
KPHL 130254Z 31021G32KT 10SM CLR M02/M14 A2957 RMK AO2 PK WND 31034/0218 SLP011 T10171144 50007 CHINO W VISNO W $
KPHL 130354Z 30022G32KT 10SM CLR M03/M17 A2960 RMK AO2 PK WND 31036/0331 SLP024 T10331167 VISNO W $
KPHL 130454Z 29016G22KT 10SM CLR M04/M18 A2963 RMK AO2 PK WND 29032/0414 SLP033 T10441178 400781044 VISNO W $
KPHL 130554Z 29017G29KT 10SM CLR M05/M19 A2964 RMK AO2 PK WND 31031/0520 SLP037 T10501189 10039 21050 51026 VISNO W $
KPHL 130654Z 29014G20KT 10SM CLR M06/M18 A2966 RMK AO2 PK WND 29027/0621 SLP045 T10561178 VISNO W $